Time;durP1;ratioP1;P1;durP2;ratioP2;P2;SDS_P1;SDS_P2;PMS_P1;PMS_P2;Temp;Humidity;BMP_temperature;BMP_pressure;BME280_temperature;BME280_humidity;BME280_pressure;Samples;Min_cycle;Max_cycle;Signal;HPM_P1;HPM_P2
2023/01/01 00:02:19;;;;;;;22.90;13.25;;;;;;;;;;10115260;28;20051;-68
2023/01/01 00:07:15;;;;;;;15.32;10.40;;;;;;;;;;10121155;28;20070;-67
2023/01/01 00:12:11;;;;;;;15.30;10.90;;;;;;;;;;10114685;28;20732;-68
2023/01/01 00:17:08;;;;;;;18.05;10.00;;;;;;;;;;10114557;28;20443;-67
2023/01/01 00:22:04;;;;;;;10.50;9.07;;;;;;;;;;10114476;28;20480;-68
2023/01/01 00:27:20;;;;;;;17.73;10.15;;;;;;;;;;10147918;28;20053;-68
2023/01/01 00:32:16;;;;;;;12.10;8.93;;;;;;;;;;10145618;28;20069;-68
2023/01/01 00:37:18;;;;;;;13.55;9.15;;;;;;;;;;10148440;28;20484;-68
2023/01/01 00:42:14;;;;;;;14.52;8.90;;;;;;;;;;10138202;28;20066;-68
2023/01/01 00:47:10;;;;;;;16.77;8.88;;;;;;;;;;10146034;28;20175;-68
2023/01/01 00:52:07;;;;;;;16.17;8.95;;;;;;;;;;10112532;28;20134;-67
2023/01/01 00:57:03;;;;;;;17.35;9.63;;;;;;;;;;10143877;28;20448;-68
2023/01/01 01:01:59;;;;;;;12.98;9.02;;;;;;;;;;10115971;28;20055;-68
2023/01/01 01:06:56;;;;;;;13.15;8.60;;;;;;;;;;10133232;28;20497;-68
2023/01/01 01:11:53;;;;;;;15.95;9.50;;;;;;;;;;10113415;28;20133;-68
2023/01/01 01:17:09;;;;;;;15.82;8.85;;;;;;;;;;10133699;28;20049;-69
2023/01/01 01:22:05;;;;;;;15.43;8.98;;;;;;;;;;10121283;28;20046;-69
2023/01/01 01:27:01;;;;;;;13.15;8.93;;;;;;;;;;10126784;28;20085;-68
2023/01/01 01:31:58;;;;;;;14.77;8.38;;;;;;;;;;10120686;28;20449;-69
2023/01/01 01:36:54;;;;;;;14.55;9.00;;;;;;;;;;10122456;28;20151;-68
2023/01/01 01:41:50;;;;;;;13.65;8.57;;;;;;;;;;10119923;28;20137;-69
2023/01/01 01:46:47;;;;;;;13.60;9.15;;;;;;;;;;10150181;28;20050;-68
2023/01/01 01:51:44;;;;;;;18.80;9.55;;;;;;;;;;10129758;28;20047;-69
2023/01/01 01:56:40;;;;;;;20.70;9.85;;;;;;;;;;10144601;28;20051;-68
2023/01/01 02:01:37;;;;;;;15.00;7.85;;;;;;;;;;10120290;28;20505;-69
2023/01/01 02:06:34;;;;;;;12.82;8.60;;;;;;;;;;10133971;28;20077;-69
2023/01/01 02:11:30;;;;;;;15.48;8.82;;;;;;;;;;10116222;28;20423;-69
2023/01/01 02:16:38;;;;;;;11.65;8.18;;;;;;;;;;10119507;28;20046;-69
2023/01/01 02:21:50;;;;;;;12.40;8.60;;;;;;;;;;10116450;28;20066;-69
2023/01/01 02:26:52;;;;;;;13.00;8.25;;;;;;;;;;10144590;28;20150;-68
2023/01/01 02:31:52;;;;;;;13.82;8.77;;;;;;;;;;10144585;28;20051;-69
2023/01/01 02:36:51;;;;;;;11.77;8.55;;;;;;;;;;10146400;28;20483;-69
2023/01/01 02:41:49;;;;;;;16.70;8.75;;;;;;;;;;10141332;28;20149;-69
2023/01/01 02:46:45;;;;;;;15.93;8.60;;;;;;;;;;10145854;28;20042;-69
2023/01/01 02:52:00;;;;;;;11.57;8.90;;;;;;;;;;10123920;28;20045;-69
2023/01/01 02:57:16;;;;;;;13.82;8.93;;;;;;;;;;10118316;28;20039;-69
2023/01/01 03:02:15;;;;;;;13.50;7.97;;;;;;;;;;10115131;28;20135;-69
2023/01/01 03:07:23;;;;;;;10.40;8.75;;;;;;;;;;10066418;28;1054302;-69
2023/01/01 03:12:39;;;;;;;12.57;9.48;;;;;;;;;;10078204;28;20045;-68
2023/01/01 03:17:40;;;;;;;15.73;8.73;;;;;;;;;;10125045;28;20066;-69
2023/01/01 03:22:37;;;;;;;12.93;9.38;;;;;;;;;;10117683;28;20047;-69
2023/01/01 03:27:36;;;;;;;14.02;9.63;;;;;;;;;;10116745;28;20034;-69
2023/01/01 03:37:52;;;;;;;13.52;10.23;;;;;;;;;;10153315;28;20238;-69
2023/01/01 03:42:50;;;;;;;13.82;10.00;;;;;;;;;;10136271;28;20051;-69
2023/01/01 03:47:47;;;;;;;15.52;11.10;;;;;;;;;;10153999;28;20046;-69
2023/01/01 03:53:06;;;;;;;21.90;9.85;;;;;;;;;;10119714;28;20090;-69
2023/01/01 03:58:08;;;;;;;16.33;9.88;;;;;;;;;;10085943;28;20442;-69
2023/01/01 04:03:31;;;;;;;13.27;9.88;;;;;;;;;;10115692;28;20053;-69
2023/01/01 04:08:27;;;;;;;16.40;10.43;;;;;;;;;;10113378;28;20043;-69
2023/01/01 04:13:23;;;;;;;14.00;9.30;;;;;;;;;;10114602;28;20441;-70
2023/01/01 04:18:21;;;;;;;15.55;9.98;;;;;;;;;;10114707;28;20055;-70
2023/01/01 04:23:18;;;;;;;15.88;10.18;;;;;;;;;;10116663;28;20058;-69
2023/01/01 04:28:14;;;;;;;11.52;9.45;;;;;;;;;;10115660;28;20051;-70
2023/01/01 04:33:10;;;;;;;18.50;9.52;;;;;;;;;;10115366;28;20074;-69
2023/01/01 04:38:11;;;;;;;12.13;9.52;;;;;;;;;;10153790;28;20582;-69
2023/01/01 04:43:07;;;;;;;16.50;9.85;;;;;;;;;;10086683;28;20040;-69
2023/01/01 04:48:04;;;;;;;14.07;9.75;;;;;;;;;;10153764;28;20125;-69
2023/01/01 04:53:00;;;;;;;11.38;9.43;;;;;;;;;;10085038;28;20058;-69
2023/01/01 04:57:56;;;;;;;12.38;8.85;;;;;;;;;;10134088;28;20066;-69
2023/01/01 05:02:52;;;;;;;14.80;8.90;;;;;;;;;;10113973;28;20050;-68
2023/01/01 05:07:49;;;;;;;15.23;9.07;;;;;;;;;;10113179;28;20042;-68
2023/01/01 05:12:45;;;;;;;13.73;9.15;;;;;;;;;;10114005;28;20130;-69
2023/01/01 05:17:41;;;;;;;12.40;8.85;;;;;;;;;;10123439;28;20121;-69
2023/01/01 05:22:37;;;;;;;16.55;8.65;;;;;;;;;;10113575;28;20397;-69
2023/01/01 05:27:34;;;;;;;15.73;8.88;;;;;;;;;;10127043;28;20138;-69
2023/01/01 05:32:30;;;;;;;9.80;8.80;;;;;;;;;;10113305;28;20076;-68
2023/01/01 05:37:26;;;;;;;9.93;8.63;;;;;;;;;;10139049;28;20051;-69
2023/01/01 05:42:22;;;;;;;11.25;9.15;;;;;;;;;;10113595;28;20126;-68
2023/01/01 05:47:21;;;;;;;14.55;8.73;;;;;;;;;;10111995;28;20050;-68
2023/01/01 05:52:17;;;;;;;13.10;9.25;;;;;;;;;;10113357;28;20650;-68
2023/01/01 05:57:21;;;;;;;15.55;8.63;;;;;;;;;;10119104;28;20051;-68
2023/01/01 06:02:17;;;;;;;11.15;9.13;;;;;;;;;;10114135;28;20143;-68
2023/01/01 06:07:14;;;;;;;16.50;8.32;;;;;;;;;;10153271;28;20042;-69
2023/01/01 06:12:10;;;;;;;13.70;8.18;;;;;;;;;;10143544;28;20051;-69
2023/01/01 06:17:06;;;;;;;9.57;7.88;;;;;;;;;;10152336;28;20493;-68
2023/01/01 06:22:03;;;;;;;10.32;7.65;;;;;;;;;;10126501;28;20062;-69
2023/01/01 06:26:59;;;;;;;12.55;8.50;;;;;;;;;;10140845;28;20054;-68
2023/01/01 06:31:55;;;;;;;12.20;8.35;;;;;;;;;;10118350;28;20043;-68
2023/01/01 06:36:51;;;;;;;11.30;7.70;;;;;;;;;;10121274;28;20456;-69
2023/01/01 06:41:47;;;;;;;9.45;7.95;;;;;;;;;;10118931;28;20125;-69
2023/01/01 06:46:44;;;;;;;9.55;8.02;;;;;;;;;;10117481;28;20093;-68
2023/01/01 06:51:41;;;;;;;11.15;8.20;;;;;;;;;;10118494;28;20467;-68
2023/01/01 06:56:38;;;;;;;11.40;8.65;;;;;;;;;;10117114;28;20112;-68
2023/01/01 07:01:35;;;;;;;8.85;8.02;;;;;;;;;;10117505;28;20053;-68
2023/01/01 07:06:32;;;;;;;10.18;7.53;;;;;;;;;;10145774;28;20054;-69
2023/01/01 07:11:28;;;;;;;10.93;7.60;;;;;;;;;;10127897;28;20560;-68
2023/01/01 07:16:25;;;;;;;11.73;7.97;;;;;;;;;;10140016;28;20459;-68
2023/01/01 07:21:24;;;;;;;16.15;8.27;;;;;;;;;;10116984;28;20065;-68
2023/01/01 07:26:25;;;;;;;10.95;8.48;;;;;;;;;;10139537;28;20078;-69
2023/01/01 07:31:21;;;;;;;12.90;8.57;;;;;;;;;;10116660;28;20047;-68
2023/01/01 07:36:18;;;;;;;11.85;7.70;;;;;;;;;;10119964;28;20454;-69
2023/01/01 07:41:14;;;;;;;11.73;7.90;;;;;;;;;;10116853;28;20043;-69
2023/01/01 07:46:11;;;;;;;11.85;8.13;;;;;;;;;;10118197;28;20038;-69
2023/01/01 07:51:07;;;;;;;8.73;7.82;;;;;;;;;;10115787;28;20078;-69
2023/01/01 07:56:04;;;;;;;9.27;7.22;;;;;;;;;;10122806;28;20050;-69
2023/01/01 08:01:00;;;;;;;8.55;7.38;;;;;;;;;;10114625;28;20063;-69
2023/01/01 08:05:56;;;;;;;8.80;7.13;;;;;;;;;;10138070;28;20057;-68
2023/01/01 08:10:53;;;;;;;9.98;7.13;;;;;;;;;;10124600;28;20568;-68
2023/01/01 08:15:56;;;;;;;8.60;7.72;;;;;;;;;;10138082;28;20665;-69
2023/01/01 08:20:53;;;;;;;8.15;7.13;;;;;;;;;;10129810;28;20133;-68
2023/01/01 08:25:49;;;;;;;11.75;7.63;;;;;;;;;;10137097;28;20093;-68
2023/01/01 08:30:45;;;;;;;8.55;7.47;;;;;;;;;;10125876;28;20460;-68
2023/01/01 08:35:42;;;;;;;7.80;7.00;;;;;;;;;;10131701;28;20046;-68
2023/01/01 08:40:41;;;;;;;7.78;7.03;;;;;;;;;;10114035;28;20059;-68
2023/01/01 08:45:37;;;;;;;8.68;7.78;;;;;;;;;;10123245;28;20505;-68
2023/01/01 08:50:34;;;;;;;9.32;7.15;;;;;;;;;;10114168;28;20077;-68
2023/01/01 08:55:30;;;;;;;8.93;7.90;;;;;;;;;;10133480;28;20046;-69
2023/01/01 09:00:26;;;;;;;8.77;7.85;;;;;;;;;;10152761;28;20050;-69
2023/01/01 09:05:23;;;;;;;12.02;6.97;;;;;;;;;;10139575;28;20125;-68
2023/01/01 09:10:19;;;;;;;10.50;8.10;;;;;;;;;;10152295;28;20150;-68
2023/01/01 09:15:15;;;;;;;9.93;6.90;;;;;;;;;;10130720;28;20471;-68
2023/01/01 09:20:12;;;;;;;10.88;7.43;;;;;;;;;;10143483;28;20519;-68
2023/01/01 09:25:08;;;;;;;9.85;7.72;;;;;;;;;;10125912;28;20102;-68
2023/01/01 09:30:05;;;;;;;8.00;7.20;;;;;;;;;;10112872;28;20082;-70
2023/01/01 09:35:01;;;;;;;8.00;7.20;;;;;;;;;;10114107;28;20051;-69
2023/01/01 09:39:57;;;;;;;7.80;7.03;;;;;;;;;;10118515;28;20075;-69
2023/01/01 09:45:02;;;;;;;9.45;6.88;;;;;;;;;;10134157;28;20064;-69
2023/01/01 09:50:04;;;;;;;8.20;7.30;;;;;;;;;;10081791;29;20051;-69
2023/01/01 09:55:03;;;;;;;7.47;6.60;;;;;;;;;;10099723;28;20685;-69
2023/01/01 10:00:00;;;;;;;10.70;7.40;;;;;;;;;;10120822;28;20141;-69
2023/01/01 10:05:12;;;;;;;11.65;7.35;;;;;;;;;;10123730;28;20053;-69
2023/01/01 10:10:21;;;;;;;8.00;7.20;;;;;;;;;;10119277;28;20500;-68
2023/01/01 10:15:20;;;;;;;8.23;7.43;;;;;;;;;;10122300;28;20054;-68
2023/01/01 10:20:21;;;;;;;8.20;7.38;;;;;;;;;;10119500;28;20050;-69
2023/01/01 10:25:20;;;;;;;8.40;7.60;;;;;;;;;;10134993;28;20416;-69
2023/01/01 10:30:20;;;;;;;10.13;7.82;;;;;;;;;;10119189;28;20053;-69
2023/01/01 10:35:21;;;;;;;8.80;8.10;;;;;;;;;;10136009;28;20050;-69
2023/01/01 10:40:26;;;;;;;8.73;7.82;;;;;;;;;;10158780;28;20047;-69
2023/01/01 10:45:28;;;;;;;8.88;7.65;;;;;;;;;;10139063;28;20045;-69
2023/01/01 10:50:39;;;;;;;8.65;7.35;;;;;;;;;;10150639;28;20113;-69
2023/01/01 10:55:35;;;;;;;9.48;8.32;;;;;;;;;;10138570;28;20057;-70
2023/01/01 11:00:31;;;;;;;8.55;7.05;;;;;;;;;;10131748;28;20176;-69
2023/01/01 11:05:28;;;;;;;10.45;7.18;;;;;;;;;;10136445;28;20046;-69
2023/01/01 11:10:30;;;;;;;9.60;7.63;;;;;;;;;;10117457;28;20130;-69
2023/01/01 11:15:26;;;;;;;;;;;;;;;;;;10117654;28;20051;-69
2023/01/01 11:20:23;;;;;;;7.72;7.03;;;;;;;;;;10117747;28;20013;-69
2023/01/01 11:25:21;;;;;;;7.70;7.00;;;;;;;;;;10121289;28;20143;-69
2023/01/01 11:30:23;;;;;;;7.57;6.95;;;;;;;;;;10117158;28;20070;-69
2023/01/01 11:35:22;;;;;;;8.35;7.32;;;;;;;;;;10134696;28;20086;-69
2023/01/01 11:40:21;;;;;;;11.55;7.40;;;;;;;;;;10150207;28;20051;-69
2023/01/01 11:45:20;;;;;;;9.70;7.60;;;;;;;;;;10134378;28;20054;-70
2023/01/01 11:50:17;;;;;;;9.90;7.47;;;;;;;;;;10143922;28;20046;-71
2023/01/01 11:55:21;;;;;;;10.07;7.10;;;;;;;;;;10132901;28;20070;-70
2023/01/01 12:00:17;;;;;;;8.38;7.60;;;;;;;;;;10141306;28;20145;-69
2023/01/01 12:05:19;;;;;;;7.43;6.65;;;;;;;;;;10133357;28;20141;-69
2023/01/01 12:10:24;;;;;;;12.70;7.65;;;;;;;;;;10134161;28;20051;-69
2023/01/01 12:15:24;;;;;;;9.48;7.30;;;;;;;;;;10115029;28;20050;-70
2023/01/01 12:20:26;;;;;;;9.50;7.57;;;;;;;;;;10114199;28;20154;-69
2023/01/01 12:25:26;;;;;;;7.43;6.70;;;;;;;;;;10133446;28;20129;-69
2023/01/01 12:30:24;;;;;;;7.43;6.72;;;;;;;;;;10122003;28;20042;-70
2023/01/01 12:35:42;;;;;;;7.60;6.90;;;;;;;;;;10123605;28;20051;-69
2023/01/01 12:40:51;;;;;;;7.68;6.40;;;;;;;;;;10114644;28;20424;-70
2023/01/01 12:46:06;;;;;;;7.13;6.13;;;;;;;;;;10134939;28;20697;-69
2023/01/01 12:51:12;;;;;;;9.35;6.43;;;;;;;;;;10148015;28;20496;-69
2023/01/01 12:56:22;;;;;;;7.95;6.22;;;;;;;;;;10139222;28;20412;-69
2023/01/01 13:01:24;;;;;;;6.90;6.20;;;;;;;;;;10126525;28;20046;-69
2023/01/01 13:06:32;;;;;;;7.72;6.90;;;;;;;;;;10140722;28;20389;-69
2023/01/01 13:11:29;;;;;;;8.82;6.57;;;;;;;;;;10124941;28;20066;-69
2023/01/01 13:16:34;;;;;;;10.65;6.78;;;;;;;;;;10124975;28;20054;-69
2023/01/01 13:21:31;;;;;;;8.02;7.43;;;;;;;;;;10120910;28;20453;-69
2023/01/01 13:26:27;;;;;;;8.75;7.85;;;;;;;;;;10137674;28;20086;-69
2023/01/01 13:31:39;;;;;;;14.65;8.32;;;;;;;;;;10121783;28;20109;-69
2023/01/01 13:36:35;;;;;;;14.18;8.52;;;;;;;;;;10134573;28;20043;-69
2023/01/01 13:41:35;;;;;;;8.77;7.88;;;;;;;;;;10121436;28;20161;-70
2023/01/01 13:46:31;;;;;;;16.08;8.20;;;;;;;;;;10121835;28;20050;-69
2023/01/01 13:51:44;;;;;;;11.35;8.48;;;;;;;;;;10120850;28;20513;-69
2023/01/01 13:57:04;;;;;;;11.90;8.50;;;;;;;;;;10119499;28;20058;-69
2023/01/01 14:02:11;;;;;;;12.75;8.35;;;;;;;;;;10119638;28;20046;-69
2023/01/01 14:07:24;;;;;;;13.65;8.68;;;;;;;;;;10152991;28;20117;-69
2023/01/01 14:12:41;;;;;;;8.57;7.73;;;;;;;;;;10140145;28;20552;-69
2023/01/01 14:17:39;;;;;;;9.88;8.13;;;;;;;;;;10122611;28;20047;-69
2023/01/01 14:22:36;;;;;;;12.40;8.23;;;;;;;;;;10118510;28;20046;-69
2023/01/01 14:27:32;;;;;;;12.48;8.57;;;;;;;;;;10143982;28;20047;-69
2023/01/01 14:32:31;;;;;;;11.68;8.30;;;;;;;;;;10119523;28;20498;-69
2023/01/01 14:37:28;;;;;;;10.63;8.52;;;;;;;;;;10132141;28;20485;-69
2023/01/01 14:42:24;;;;;;;12.45;8.35;;;;;;;;;;10118984;28;20070;-69
2023/01/01 14:47:31;;;;;;;9.98;8.70;;;;;;;;;;10126765;28;20130;-69
2023/01/01 14:52:30;;;;;;;14.35;9.05;;;;;;;;;;10117699;28;20142;-70
2023/01/01 14:57:28;;;;;;;12.57;8.80;;;;;;;;;;10139074;28;20042;-69
2023/01/01 15:02:25;;;;;;;13.48;8.65;;;;;;;;;;10118200;28;20049;-70
2023/01/01 15:07:25;;;;;;;14.10;10.23;;;;;;;;;;10131545;28;20178;-69
2023/01/01 15:12:22;;;;;;;12.75;9.40;;;;;;;;;;10117304;28;20065;-70
2023/01/01 15:17:19;;;;;;;16.13;10.15;;;;;;;;;;10116816;28;20112;-69
2023/01/01 15:22:15;;;;;;;11.60;10.45;;;;;;;;;;10117614;28;20047;-70
2023/01/01 15:27:23;;;;;;;12.57;9.77;;;;;;;;;;10149791;28;20093;-69
2023/01/01 15:32:24;;;;;;;10.35;8.43;;;;;;;;;;10143720;28;20077;-69
2023/01/01 15:37:31;;;;;;;11.27;8.45;;;;;;;;;;10127282;28;20046;-70
2023/01/01 15:42:33;;;;;;;13.93;8.20;;;;;;;;;;10115364;28;20062;-69
2023/01/01 15:47:29;;;;;;;10.23;8.10;;;;;;;;;;10152071;28;20527;-70
2023/01/01 15:52:26;;;;;;;14.80;8.90;;;;;;;;;;10122409;28;20413;-69
2023/01/01 15:57:23;;;;;;;10.40;8.55;;;;;;;;;;10140434;28;20413;-70
2023/01/01 16:02:21;;;;;;;21.33;11.95;;;;;;;;;;10116039;28;20043;-69
2023/01/01 16:07:22;;;;;;;20.17;9.27;;;;;;;;;;10126706;28;20642;-70
2023/01/01 16:12:19;;;;;;;17.27;13.00;;;;;;;;;;10115164;28;20054;-70
2023/01/01 16:17:16;;;;;;;15.65;8.32;;;;;;;;;;10116981;28;20420;-69
2023/01/01 16:22:14;;;;;;;11.55;8.55;;;;;;;;;;10115011;28;20047;-69
2023/01/01 16:27:11;;;;;;;12.25;7.90;;;;;;;;;;10147027;28;20144;-69
2023/01/01 16:32:15;;;;;;;10.98;8.25;;;;;;;;;;10119079;28;20053;-69
2023/01/01 16:37:11;;;;;;;10.32;8.60;;;;;;;;;;10147687;28;20133;-70
2023/01/01 16:42:10;;;;;;;15.90;8.80;;;;;;;;;;10129810;28;20531;-69
2023/01/01 16:47:06;;;;;;;12.77;9.52;;;;;;;;;;10147079;28;20057;-69
2023/01/01 16:52:02;;;;;;;13.10;9.45;;;;;;;;;;10113078;28;20092;-69
2023/01/01 16:56:59;;;;;;;12.98;10.20;;;;;;;;;;10114100;28;20047;-69
2023/01/01 17:01:55;;;;;;;11.52;9.10;;;;;;;;;;10113541;28;20046;-70
2023/01/01 17:06:52;;;;;;;10.63;9.13;;;;;;;;;;10114808;28;20047;-69
2023/01/01 17:11:48;;;;;;;13.40;9.15;;;;;;;;;;10112641;28;20048;-69
2023/01/01 17:16:44;;;;;;;11.65;9.43;;;;;;;;;;10140353;28;20419;-69
2023/01/01 17:21:40;;;;;;;14.60;9.98;;;;;;;;;;10114133;28;20042;-69
2023/01/01 17:26:37;;;;;;;11.18;10.00;;;;;;;;;;10123448;28;20042;-69
2023/01/01 17:31:34;;;;;;;14.80;10.90;;;;;;;;;;10112591;28;20047;-69
2023/01/01 17:36:30;;;;;;;17.20;11.40;;;;;;;;;;10112893;28;20047;-69
2023/01/01 17:41:26;;;;;;;13.00;10.98;;;;;;;;;;10113291;28;20054;-70
2023/01/01 17:46:23;;;;;;;13.07;11.52;;;;;;;;;;10139305;28;20062;-69
2023/01/01 17:51:20;;;;;;;14.68;12.70;;;;;;;;;;10145763;28;20081;-69
2023/01/01 17:56:16;;;;;;;13.43;12.05;;;;;;;;;;10139065;28;20523;-69
2023/01/01 18:01:22;;;;;;;14.20;12.65;;;;;;;;;;10132450;28;20050;-69
2023/01/01 18:06:19;;;;;;;15.88;13.27;;;;;;;;;;10146261;28;20062;-69
2023/01/01 18:11:15;;;;;;;18.40;14.43;;;;;;;;;;10129144;28;20050;-69
2023/01/01 18:16:11;;;;;;;17.92;13.55;;;;;;;;;;10142914;28;20525;-69
2023/01/01 18:21:13;;;;;;;17.42;14.00;;;;;;;;;;10118538;28;20046;-69
2023/01/01 18:26:09;;;;;;;16.83;15.00;;;;;;;;;;10119445;28;20464;-69
2023/01/01 18:31:11;;;;;;;16.98;15.57;;;;;;;;;;10118690;28;20158;-69
2023/01/01 18:36:08;;;;;;;16.95;15.25;;;;;;;;;;10132106;28;20069;-69
2023/01/01 18:41:20;;;;;;;18.27;16.38;;;;;;;;;;10119435;28;20043;-69
2023/01/01 18:46:16;;;;;;;19.23;17.40;;;;;;;;;;10126049;28;20523;-69
2023/01/01 18:51:17;;;;;;;18.63;16.70;;;;;;;;;;10117652;28;20125;-69
2023/01/01 18:56:13;;;;;;;20.00;18.02;;;;;;;;;;10143751;28;20046;-69
2023/01/01 19:01:22;;;;;;;20.23;18.50;;;;;;;;;;10141440;28;20487;-69
2023/01/01 19:06:23;;;;;;;20.10;18.20;;;;;;;;;;10120207;28;20043;-69
2023/01/01 19:11:21;;;;;;;21.17;19.05;;;;;;;;;;10113393;28;20062;-69
2023/01/01 19:16:29;;;;;;;20.33;18.58;;;;;;;;;;10096268;28;20062;-69
2023/01/01 19:21:25;;;;;;;20.10;18.40;;;;;;;;;;10108751;28;20046;-68
2023/01/01 19:26:23;;;;;;;21.00;18.85;;;;;;;;;;10117951;28;20611;-68
2023/01/01 19:31:20;;;;;;;20.77;18.92;;;;;;;;;;10108889;28;20042;-67
2023/01/01 19:36:16;;;;;;;20.70;19.08;;;;;;;;;;10099695;28;20051;-69
2023/01/01 19:41:13;;;;;;;21.48;19.45;;;;;;;;;;10106812;28;20042;-71
2023/01/01 19:46:09;;;;;;;21.73;19.80;;;;;;;;;;10110521;28;20050;-71
2023/01/01 19:51:05;;;;;;;22.75;20.35;;;;;;;;;;10101953;28;20682;-71
2023/01/01 19:56:02;;;;;;;23.05;21.15;;;;;;;;;;10110173;28;20049;-71
2023/01/01 20:00:58;;;;;;;22.88;19.67;;;;;;;;;;10102897;28;20049;-71
2023/01/01 20:05:54;;;;;;;23.17;20.92;;;;;;;;;;10103981;28;20386;-71
2023/01/01 20:10:51;;;;;;;23.42;20.67;;;;;;;;;;10095546;28;20509;-72
2023/01/01 20:15:47;;;;;;;22.70;20.67;;;;;;;;;;10081606;28;20066;-72
2023/01/01 20:25:59;;;;;;;24.17;21.80;;;;;;;;;;10096907;28;20503;-69
2023/01/01 20:30:55;;;;;;;22.63;20.90;;;;;;;;;;10102295;28;20046;-69
2023/01/01 20:41:22;;;;;;;25.52;23.60;;;;;;;;;;10095127;28;20493;-69
2023/01/01 20:46:18;;;;;;;28.77;26.48;;;;;;;;;;10098605;28;20093;-69
2023/01/01 20:51:15;;;;;;;29.88;27.45;;;;;;;;;;10098489;28;20121;-69
2023/01/01 20:56:11;;;;;;;30.02;27.63;;;;;;;;;;10098816;28;20047;-69
2023/01/01 21:01:07;;;;;;;33.55;30.90;;;;;;;;;;10091345;28;20090;-69
2023/01/01 21:06:04;;;;;;;31.90;29.38;;;;;;;;;;10096084;28;20051;-69
2023/01/01 21:11:00;;;;;;;32.67;30.58;;;;;;;;;;10102858;28;20074;-69
2023/01/01 21:16:05;;;;;;;34.42;32.00;;;;;;;;;;10095436;28;20578;-69
2023/01/01 21:21:08;;;;;;;34.53;31.90;;;;;;;;;;10084505;28;20591;-69
2023/01/01 21:26:12;;;;;;;33.92;31.38;;;;;;;;;;10080517;28;20046;-68
2023/01/01 21:31:12;;;;;;;38.67;35.70;;;;;;;;;;10075720;28;20050;-68
2023/01/01 21:36:16;;;;;;;33.17;30.77;;;;;;;;;;10094323;28;20153;-68
2023/01/01 21:41:18;;;;;;;34.42;31.55;;;;;;;;;;10080537;28;20480;-68
2023/01/01 21:46:17;;;;;;;33.95;30.73;;;;;;;;;;10100890;28;20047;-68
2023/01/01 21:51:31;;;;;;;32.75;30.30;;;;;;;;;;10116429;28;20045;-68
2023/01/01 21:56:33;;;;;;;31.55;29.25;;;;;;;;;;10095849;28;20049;-67
2023/01/01 22:01:35;;;;;;;30.67;28.27;;;;;;;;;;10086810;28;20059;-68
2023/01/01 22:06:31;;;;;;;;;;;;;;;;;;10100229;28;20093;-69
2023/01/01 22:11:28;;;;;;;32.22;29.27;;;;;;;;;;10120298;28;19922;-68
2023/01/01 22:16:28;;;;;;;29.17;26.95;;;;;;;;;;10108052;28;20051;-68
2023/01/01 22:21:24;;;;;;;29.02;26.77;;;;;;;;;;10110913;28;20140;-68
2023/01/01 22:26:23;;;;;;;26.85;24.48;;;;;;;;;;10108794;28;20498;-70
2023/01/01 22:31:24;;;;;;;27.25;25.45;;;;;;;;;;10120308;28;20090;-70
2023/01/01 22:36:22;;;;;;;29.48;27.17;;;;;;;;;;10104124;28;20055;-70
2023/01/01 22:41:19;;;;;;;27.02;25.02;;;;;;;;;;10107043;28;20063;-68
2023/01/01 22:46:27;;;;;;;27.80;25.83;;;;;;;;;;10086002;28;20047;-68
2023/01/01 22:51:26;;;;;;;26.25;24.33;;;;;;;;;;10107533;28;20104;-69
2023/01/01 22:56:22;;;;;;;25.42;23.52;;;;;;;;;;10099672;28;20051;-69
2023/01/01 23:01:18;;;;;;;23.67;21.77;;;;;;;;;;10106547;28;20074;-70
2023/01/01 23:06:14;;;;;;;23.77;21.58;;;;;;;;;;10098657;28;20118;-69
2023/01/01 23:11:12;;;;;;;22.38;20.60;;;;;;;;;;10086797;28;20059;-70
2023/01/01 23:16:08;;;;;;;22.25;20.52;;;;;;;;;;10100116;28;20078;-70
2023/01/01 23:21:07;;;;;;;22.73;20.85;;;;;;;;;;10099352;28;20098;-70
2023/01/01 23:26:04;;;;;;;22.63;20.73;;;;;;;;;;10090451;28;20042;-70
2023/01/01 23:31:01;;;;;;;20.77;19.25;;;;;;;;;;10097694;28;20051;-69
2023/01/01 23:35:58;;;;;;;21.75;20.05;;;;;;;;;;10084673;28;20065;-69
2023/01/01 23:40:54;;;;;;;23.35;21.30;;;;;;;;;;10085512;28;20047;-69
2023/01/01 23:45:51;;;;;;;23.98;22.35;;;;;;;;;;10087699;28;20070;-69
2023/01/01 23:50:47;;;;;;;24.15;22.60;;;;;;;;;;10086965;28;20085;-70
2023/01/01 23:55:43;;;;;;;25.20;23.42;;;;;;;;;;10089348;28;20134;-70
